Roanoke, Virginia
Current Conditions -  °F | °C
As of 11:54 PM on Sunday 21 Dec 2014 (Local Time) from KROA Reporting Station
Overcast Overcast  
Wind Chill:   Ceiling: 3400
Heat Index:   Visibility: 10mi
Dew Point: -2°   Wind: 8mph
Humidity: 67%   Direction: 110°ESE
Pressure: 30.27"   Gusts: NA
Location:  37.27°N, 79.94°W
Report Text: KROA 220454Z 11007KT 10SM OVC034 04/M02 A3027 RMK AO2 SLP253 T00391017 400830017
Loading
Personal Weather Stations






























Interactive Weather Map New forecast layout! Learn more

10-Day Weather Forecast

Advertisements
Track Severe Weather on mobile